Keithsburg, Illinois
Current Conditions -  °F | °C
As of 8:15 AM on Monday 24 Nov 2014 (Local Time) from KMUT Reporting Station
Overcast Overcast  
Wind Chill: 19°   Ceiling: 1600
Heat Index: 32°   Visibility: 7mi
Dew Point: 27°   Wind: 25mph
Humidity: 80%   Direction: 280°W
Pressure: 29.4"   Gusts: 31mph
Location:  41.1°N, 90.94°W
Report Text: KMUT 241415Z AUTO 28022G27KT 7SM BKN016 OVC020 M00/M03 A2940 RMK AO2
Loading
Personal Weather Stations






























Interactive Weather Map New forecast layout! Learn more

10-Day Weather Forecast

Advertisements
Track Severe Weather on mobile